sensor_id;sensor_type;location;lat;lon;timestamp;pressure;altitude;pressure_sealevel;temperature;humidity
66381;BME280;53177;52.648;1.214;2023-01-26T00:01:24;102364.06;;;4.07;100.00
66381;BME280;53177;52.648;1.214;2023-01-26T00:03:50;102378.09;;;4.09;100.00
66381;BME280;53177;52.648;1.214;2023-01-26T00:06:17;102377.28;;;4.12;100.00
66381;BME280;53177;52.648;1.214;2023-01-26T00:08:45;102370.28;;;4.11;100.00
66381;BME280;53177;52.648;1.214;2023-01-26T00:11:13;102380.63;;;4.06;100.00
66381;BME280;53177;52.648;1.214;2023-01-26T00:13:40;102375.28;;;4.03;100.00
66381;BME280;53177;52.648;1.214;2023-01-26T00:16:13;102379.50;;;3.98;100.00
66381;BME280;53177;52.648;1.214;2023-01-26T00:18:39;102378.38;;;3.90;100.00
66381;BME280;53177;52.648;1.214;2023-01-26T00:21:06;102379.13;;;3.86;100.00
66381;BME280;53177;52.648;1.214;2023-01-26T00:23:33;102380.00;;;3.86;100.00
66381;BME280;53177;52.648;1.214;2023-01-26T00:25:59;102382.47;;;3.82;100.00
66381;BME280;53177;52.648;1.214;2023-01-26T00:28:24;102387.56;;;3.77;100.00
66381;BME280;53177;52.648;1.214;2023-01-26T00:30:50;102386.63;;;3.75;100.00
66381;BME280;53177;52.648;1.214;2023-01-26T00:33:15;102383.19;;;3.76;100.00
66381;BME280;53177;52.648;1.214;2023-01-26T00:35:41;102383.06;;;3.73;100.00
66381;BME280;53177;52.648;1.214;2023-01-26T00:38:10;102388.09;;;3.67;100.00
66381;BME280;53177;52.648;1.214;2023-01-26T00:40:36;102378.44;;;3.65;100.00
66381;BME280;53177;52.648;1.214;2023-01-26T00:43:02;102382.84;;;3.66;100.00
66381;BME280;53177;52.648;1.214;2023-01-26T00:45:27;102380.97;;;3.62;100.00
66381;BME280;53177;52.648;1.214;2023-01-26T00:47:53;102382.69;;;3.61;100.00
66381;BME280;53177;52.648;1.214;2023-01-26T00:50:19;102388.09;;;3.67;100.00
66381;BME280;53177;52.648;1.214;2023-01-26T00:52:45;102384.59;;;3.67;100.00
66381;BME280;53177;52.648;1.214;2023-01-26T00:55:10;102381.94;;;3.65;100.00
66381;BME280;53177;52.648;1.214;2023-01-26T00:57:36;102379.28;;;3.64;100.00
66381;BME280;53177;52.648;1.214;2023-01-26T01:00:02;102382.63;;;3.60;100.00
66381;BME280;53177;52.648;1.214;2023-01-26T01:02:30;102379.84;;;3.55;100.00
66381;BME280;53177;52.648;1.214;2023-01-26T01:04:56;102382.34;;;3.51;100.00
66381;BME280;53177;52.648;1.214;2023-01-26T01:07:22;102391.91;;;3.50;100.00
66381;BME280;53177;52.648;1.214;2023-01-26T01:09:47;102385.69;;;3.47;100.00
66381;BME280;53177;52.648;1.214;2023-01-26T01:12:12;102386.69;;;3.50;100.00
66381;BME280;53177;52.648;1.214;2023-01-26T01:14:38;102391.84;;;3.49;100.00
66381;BME280;53177;52.648;1.214;2023-01-26T01:17:03;102383.09;;;3.47;100.00
66381;BME280;53177;52.648;1.214;2023-01-26T01:19:29;102388.09;;;3.40;100.00
66381;BME280;53177;52.648;1.214;2023-01-26T01:21:54;102387.19;;;3.40;100.00
66381;BME280;53177;52.648;1.214;2023-01-26T01:24:20;102398.44;;;3.37;100.00
66381;BME280;53177;52.648;1.214;2023-01-26T01:26:45;102400.13;;;3.35;100.00
66381;BME280;53177;52.648;1.214;2023-01-26T01:29:14;102396.47;;;3.30;100.00
66381;BME280;53177;52.648;1.214;2023-01-26T01:31:39;102397.28;;;3.28;100.00
66381;BME280;53177;52.648;1.214;2023-01-26T01:34:08;102399.97;;;3.31;100.00
66381;BME280;53177;52.648;1.214;2023-01-26T01:36:33;102401.59;;;3.27;100.00
66381;BME280;53177;52.648;1.214;2023-01-26T01:38:59;102411.34;;;3.31;100.00
66381;BME280;53177;52.648;1.214;2023-01-26T01:41:26;102406.88;;;3.29;100.00
66381;BME280;53177;52.648;1.214;2023-01-26T01:44:17;102401.63;;;3.29;100.00
66381;BME280;53177;52.648;1.214;2023-01-26T01:46:50;102410.28;;;3.26;100.00
66381;BME280;53177;52.648;1.214;2023-01-26T01:49:37;102413.69;;;3.24;100.00
66381;BME280;53177;52.648;1.214;2023-01-26T01:54:37;102413.69;;;3.24;100.00
66381;BME280;53177;52.648;1.214;2023-01-26T01:57:07;102413.84;;;3.28;100.00
66381;BME280;53177;52.648;1.214;2023-01-26T01:59:41;102420.81;;;3.29;100.00
66381;BME280;53177;52.648;1.214;2023-01-26T02:02:08;102417.28;;;3.27;100.00
66381;BME280;53177;52.648;1.214;2023-01-26T02:04:34;102417.44;;;3.32;100.00
66381;BME280;53177;52.648;1.214;2023-01-26T02:07:00;102412.16;;;3.30;100.00
66381;BME280;53177;52.648;1.214;2023-01-26T02:09:32;102410.28;;;3.26;100.00
66381;BME280;53177;52.648;1.214;2023-01-26T02:12:20;102413.72;;;3.25;100.00
66381;BME280;53177;52.648;1.214;2023-01-26T02:14:46;102407.66;;;3.26;100.00
66381;BME280;53177;52.648;1.214;2023-01-26T02:17:11;102401.69;;;3.30;100.00
66381;BME280;53177;52.648;1.214;2023-01-26T02:20:07;102406.13;;;3.33;100.00
66381;BME280;53177;52.648;1.214;2023-01-26T02:27:55;102409.06;;;3.42;100.00
66381;BME280;53177;52.648;1.214;2023-01-26T02:30:22;102402.03;;;3.39;100.00
66381;BME280;53177;52.648;1.214;2023-01-26T02:32:48;102407.25;;;3.39;100.00
66381;BME280;53177;52.648;1.214;2023-01-26T02:35:14;102401.13;;;3.39;100.00
66381;BME280;53177;52.648;1.214;2023-01-26T02:37:39;102405.66;;;3.44;100.00
66381;BME280;53177;52.648;1.214;2023-01-26T02:40:12;102401.47;;;3.50;100.00
66381;BME280;53177;52.648;1.214;2023-01-26T02:42:40;102407.88;;;3.59;100.00
66381;BME280;53177;52.648;1.214;2023-01-26T02:45:11;102402.97;;;3.68;100.00
66381;BME280;53177;52.648;1.214;2023-01-26T02:47:37;102394.28;;;3.69;100.00
66381;BME280;53177;52.648;1.214;2023-01-26T02:50:06;102393.59;;;3.75;100.00
66381;BME280;53177;52.648;1.214;2023-01-26T02:52:31;102395.75;;;3.88;100.00
66381;BME280;53177;52.648;1.214;2023-01-26T02:54:57;102400.38;;;3.97;100.00
66381;BME280;53177;52.648;1.214;2023-01-26T02:57:42;102402.25;;;4.01;100.00
66381;BME280;53177;52.648;1.214;2023-01-26T03:00:10;102400.63;;;4.04;100.00
66381;BME280;53177;52.648;1.214;2023-01-26T03:02:37;102403.31;;;4.07;100.00
66381;BME280;53177;52.648;1.214;2023-01-26T03:05:03;102401.59;;;4.08;100.00
66381;BME280;53177;52.648;1.214;2023-01-26T03:07:29;102400.84;;;4.12;100.00
66381;BME280;53177;52.648;1.214;2023-01-26T03:09:55;102401.97;;;4.20;100.00
66381;BME280;53177;52.648;1.214;2023-01-26T03:12:23;102403.78;;;4.22;100.00
66381;BME280;53177;52.648;1.214;2023-01-26T03:14:49;102403.88;;;4.25;100.00
66381;BME280;53177;52.648;1.214;2023-01-26T03:17:35;102403.84;;;4.24;100.00
66381;BME280;53177;52.648;1.214;2023-01-26T03:20:01;102412.59;;;4.24;100.00
66381;BME280;53177;52.648;1.214;2023-01-26T03:22:44;102416.09;;;4.25;100.00
66381;BME280;53177;52.648;1.214;2023-01-26T03:25:28;102410.91;;;4.26;100.00
66381;BME280;53177;52.648;1.214;2023-01-26T03:28:12;102412.94;;;4.36;100.00
66381;BME280;53177;52.648;1.214;2023-01-26T03:30:38;102406.13;;;4.41;100.00
66381;BME280;53177;52.648;1.214;2023-01-26T03:33:03;102403.50;;;4.41;100.00
66381;BME280;53177;52.648;1.214;2023-01-26T03:35:29;102406.03;;;4.38;100.00
66381;BME280;53177;52.648;1.214;2023-01-26T03:37:56;102412.06;;;4.36;100.00
66381;BME280;53177;52.648;1.214;2023-01-26T03:40:23;102411.19;;;4.35;100.00
66381;BME280;53177;52.648;1.214;2023-01-26T03:43:08;102417.31;;;4.36;100.00
66381;BME280;53177;52.648;1.214;2023-01-26T03:45:52;102416.38;;;4.34;100.00
66381;BME280;53177;52.648;1.214;2023-01-26T03:48:36;102416.38;;;4.34;100.00
66381;BME280;53177;52.648;1.214;2023-01-26T03:51:20;102408.44;;;4.31;100.00
66381;BME280;53177;52.648;1.214;2023-01-26T03:54:04;102414.63;;;4.34;100.00
66381;BME280;53177;52.648;1.214;2023-01-26T03:56:48;102413.06;;;4.39;100.00
66381;BME280;53177;52.648;1.214;2023-01-26T03:59:13;102413.06;;;4.39;100.00
66381;BME280;53177;52.648;1.214;2023-01-26T04:01:45;102422.75;;;4.43;100.00
66381;BME280;53177;52.648;1.214;2023-01-26T04:04:30;102405.31;;;4.44;100.00
66381;BME280;53177;52.648;1.214;2023-01-26T04:07:14;102414.94;;;4.45;100.00
66381;BME280;53177;52.648;1.214;2023-01-26T04:09:58;102421.13;;;4.47;100.00
66381;BME280;53177;52.648;1.214;2023-01-26T04:12:23;102424.69;;;4.49;100.00
66381;BME280;53177;52.648;1.214;2023-01-26T04:14:48;102423.88;;;4.52;100.00
66381;BME280;53177;52.648;1.214;2023-01-26T04:17:32;102417.72;;;4.50;100.00
66381;BME280;53177;52.648;1.214;2023-01-26T04:20:17;102421.09;;;4.46;100.00
66381;BME280;53177;52.648;1.214;2023-01-26T04:23:01;102423.75;;;4.47;100.00
66381;BME280;53177;52.648;1.214;2023-01-26T04:25:26;102421.31;;;4.53;100.00
66381;BME280;53177;52.648;1.214;2023-01-26T04:27:52;102423.13;;;4.56;100.00
66381;BME280;53177;52.648;1.214;2023-01-26T04:30:19;102423.09;;;4.54;100.00
66381;BME280;53177;52.648;1.214;2023-01-26T04:32:45;102416.16;;;4.56;100.00
66381;BME280;53177;52.648;1.214;2023-01-26T04:35:11;102411.72;;;4.54;100.00
66381;BME280;53177;52.648;1.214;2023-01-26T04:37:37;102422.19;;;4.54;100.00
66381;BME280;53177;52.648;1.214;2023-01-26T04:40:04;102419.66;;;4.57;100.00
66381;BME280;53177;52.648;1.214;2023-01-26T04:42:30;102418.91;;;4.61;100.00
66381;BME280;53177;52.648;1.214;2023-01-26T04:44:55;102417.13;;;4.60;100.00
66381;BME280;53177;52.648;1.214;2023-01-26T04:47:21;102413.59;;;4.58;99.80
66381;BME280;53177;52.648;1.214;2023-01-26T04:49:46;102415.41;;;4.60;99.87
66381;BME280;53177;52.648;1.214;2023-01-26T04:52:12;102412.84;;;4.62;99.29
66381;BME280;53177;52.648;1.214;2023-01-26T04:54:38;102416.44;;;4.65;98.93
66381;BME280;53177;52.648;1.214;2023-01-26T04:57:04;102423.41;;;4.66;98.85
66381;BME280;53177;52.648;1.214;2023-01-26T04:59:30;102413.13;;;4.72;98.64
66381;BME280;53177;52.648;1.214;2023-01-26T05:01:55;102410.53;;;4.72;99.09
66381;BME280;53177;52.648;1.214;2023-01-26T05:04:21;102401.72;;;4.70;98.79
66381;BME280;53177;52.648;1.214;2023-01-26T05:06:46;102405.91;;;4.64;98.33
66381;BME280;53177;52.648;1.214;2023-01-26T05:09:12;102408.25;;;4.55;99.26
66381;BME280;53177;52.648;1.214;2023-01-26T05:11:37;102410.00;;;4.54;99.27
66381;BME280;53177;52.648;1.214;2023-01-26T05:14:03;102409.84;;;4.50;99.64
66381;BME280;53177;52.648;1.214;2023-01-26T05:16:28;102404.41;;;4.43;99.38
66381;BME280;53177;52.648;1.214;2023-01-26T05:18:54;102412.25;;;4.42;99.92
66381;BME280;53177;52.648;1.214;2023-01-26T05:21:19;102406.06;;;4.40;100.00
66381;BME280;53177;52.648;1.214;2023-01-26T05:23:46;102414.72;;;4.37;99.67
66381;BME280;53177;52.648;1.214;2023-01-26T05:26:12;102418.19;;;4.36;100.00
66381;BME280;53177;52.648;1.214;2023-01-26T05:28:37;102422.56;;;4.36;100.00
66381;BME280;53177;52.648;1.214;2023-01-26T05:31:03;102420.78;;;4.36;99.88
66381;BME280;53177;52.648;1.214;2023-01-26T05:33:29;102422.56;;;4.36;100.00
66381;BME280;53177;52.648;1.214;2023-01-26T05:35:55;102424.38;;;4.38;100.00
66381;BME280;53177;52.648;1.214;2023-01-26T05:38:20;102429.59;;;4.38;100.00
66381;BME280;53177;52.648;1.214;2023-01-26T05:40:46;102428.88;;;4.44;100.00
66381;BME280;53177;52.648;1.214;2023-01-26T05:43:12;102434.84;;;4.38;100.00
66381;BME280;53177;52.648;1.214;2023-01-26T05:45:38;102436.66;;;4.41;100.00
66381;BME280;53177;52.648;1.214;2023-01-26T05:48:04;102439.13;;;4.36;100.00
66381;BME280;53177;52.648;1.214;2023-01-26T05:50:30;102436.50;;;4.36;99.92
66381;BME280;53177;52.648;1.214;2023-01-26T05:52:55;102428.66;;;4.36;100.00
66381;BME280;53177;52.648;1.214;2023-01-26T05:55:21;102442.63;;;4.37;100.00
66381;BME280;53177;52.648;1.214;2023-01-26T05:57:46;102433.81;;;4.33;100.00
66381;BME280;53177;52.648;1.214;2023-01-26T06:00:14;102442.41;;;4.29;100.00
66381;BME280;53177;52.648;1.214;2023-01-26T06:02:40;102444.09;;;4.27;100.00
66381;BME280;53177;52.648;1.214;2023-01-26T06:05:07;102452.75;;;4.25;100.00
66381;BME280;53177;52.648;1.214;2023-01-26T06:07:32;102445.66;;;4.21;100.00
66381;BME280;53177;52.648;1.214;2023-01-26T06:09:58;102453.38;;;4.18;100.00
66381;BME280;53177;52.648;1.214;2023-01-26T06:12:23;102451.56;;;4.15;100.00
66381;BME280;53177;52.648;1.214;2023-01-26T06:14:49;102454.94;;;4.11;100.00
66381;BME280;53177;52.648;1.214;2023-01-26T06:17:16;102449.53;;;4.07;100.00
66381;BME280;53177;52.648;1.214;2023-01-26T06:19:42;102454.78;;;4.07;100.00
66381;BME280;53177;52.648;1.214;2023-01-26T06:22:11;102451.31;;;4.08;100.00
66381;BME280;53177;52.648;1.214;2023-01-26T06:24:37;102462.75;;;4.10;100.00
66381;BME280;53177;52.648;1.214;2023-01-26T06:27:02;102457.56;;;4.11;100.00
66381;BME280;53177;52.648;1.214;2023-01-26T06:29:31;102459.41;;;4.14;100.00
66381;BME280;53177;52.648;1.214;2023-01-26T06:31:58;102472.50;;;4.15;100.00
66381;BME280;53177;52.648;1.214;2023-01-26T06:34:23;102461.22;;;4.16;100.00
66381;BME280;53177;52.648;1.214;2023-01-26T06:36:49;102460.25;;;4.14;100.00
66381;BME280;53177;52.648;1.214;2023-01-26T06:39:14;102466.44;;;4.16;100.00
66381;BME280;53177;52.648;1.214;2023-01-26T06:41:42;102477.00;;;4.19;100.00
66381;BME280;53177;52.648;1.214;2023-01-26T06:44:09;102463.97;;;4.21;100.00
66381;BME280;53177;52.648;1.214;2023-01-26T06:46:35;102464.84;;;4.21;100.00
66381;BME280;53177;52.648;1.214;2023-01-26T06:49:01;102473.66;;;4.23;100.00
66381;BME280;53177;52.648;1.214;2023-01-26T06:52:42;102469.31;;;4.24;100.00
66381;BME280;53177;52.648;1.214;2023-01-26T06:54:42;102469.31;;;4.24;100.00
66381;BME280;53177;52.648;1.214;2023-01-26T06:57:07;102472.69;;;4.21;100.00
66381;BME280;53177;52.648;1.214;2023-01-26T06:59:33;102466.53;;;4.19;100.00
66381;BME280;53177;52.648;1.214;2023-01-26T07:01:58;102467.38;;;4.18;100.00
66381;BME280;53177;52.648;1.214;2023-01-26T07:04:26;102469.00;;;4.15;100.00
66381;BME280;53177;52.648;1.214;2023-01-26T07:06:52;102477.75;;;4.15;100.00
66381;BME280;53177;52.648;1.214;2023-01-26T07:09:17;102477.75;;;4.15;100.00
66381;BME280;53177;52.648;1.214;2023-01-26T07:11:43;102474.25;;;4.15;100.00
66381;BME280;53177;52.648;1.214;2023-01-26T07:14:10;102474.31;;;4.16;100.00
66381;BME280;53177;52.648;1.214;2023-01-26T07:16:38;102470.94;;;4.20;100.00
66381;BME280;53177;52.648;1.214;2023-01-26T07:19:10;102472.84;;;4.26;100.00
66381;BME280;53177;52.648;1.214;2023-01-26T07:21:38;102468.56;;;4.28;100.00
66381;BME280;53177;52.648;1.214;2023-01-26T07:24:11;102471.19;;;4.28;100.00
66381;BME280;53177;52.648;1.214;2023-01-26T07:26:37;102469.69;;;4.36;100.00
66381;BME280;53177;52.648;1.214;2023-01-26T07:29:03;102475.78;;;4.36;100.00
66381;BME280;53177;52.648;1.214;2023-01-26T07:31:28;102476.97;;;4.46;100.00
66381;BME280;53177;52.648;1.214;2023-01-26T07:34:00;102480.56;;;4.50;100.00
66381;BME280;53177;52.648;1.214;2023-01-26T07:36:29;102479.09;;;4.58;100.00
66381;BME280;53177;52.648;1.214;2023-01-26T07:38:55;102481.78;;;4.61;100.00
66381;BME280;53177;52.648;1.214;2023-01-26T07:41:21;102481.78;;;4.61;100.00
66381;BME280;53177;52.648;1.214;2023-01-26T07:43:46;102488.94;;;4.66;100.00
66381;BME280;53177;52.648;1.214;2023-01-26T07:46:13;102489.88;;;4.68;100.00
66381;BME280;53177;52.648;1.214;2023-01-26T07:48:38;102491.63;;;4.69;100.00
66381;BME280;53177;52.648;1.214;2023-01-26T07:51:05;102497.88;;;4.73;100.00
66381;BME280;53177;52.648;1.214;2023-01-26T07:53:33;102500.53;;;4.74;100.00
66381;BME280;53177;52.648;1.214;2023-01-26T07:56:08;102497.22;;;4.80;100.00
66381;BME280;53177;52.648;1.214;2023-01-26T07:58:34;102497.31;;;4.83;100.00
66381;BME280;53177;52.648;1.214;2023-01-26T08:01:05;102495.50;;;4.82;100.00
66381;BME280;53177;52.648;1.214;2023-01-26T08:03:30;102492.91;;;4.82;100.00
66381;BME280;53177;52.648;1.214;2023-01-26T08:05:56;102494.69;;;4.83;100.00
66381;BME280;53177;52.648;1.214;2023-01-26T08:08:21;102498.97;;;4.81;100.00
66381;BME280;53177;52.648;1.214;2023-01-26T08:10:46;102500.94;;;4.88;100.00
66381;BME280;53177;52.648;1.214;2023-01-26T08:13:12;102494.91;;;4.90;100.00
66381;BME280;53177;52.648;1.214;2023-01-26T08:15:37;102492.22;;;4.89;100.00
66381;BME280;53177;52.648;1.214;2023-01-26T08:18:03;102490.44;;;4.88;100.00
66381;BME280;53177;52.648;1.214;2023-01-26T08:20:29;102496.47;;;4.84;100.00
66381;BME280;53177;52.648;1.214;2023-01-26T08:22:55;102505.09;;;4.81;100.00
66381;BME280;53177;52.648;1.214;2023-01-26T08:25:21;102504.22;;;4.81;100.00
66381;BME280;53177;52.648;1.214;2023-01-26T08:27:46;102501.50;;;4.78;100.00
66381;BME280;53177;52.648;1.214;2023-01-26T08:30:12;102497.97;;;4.76;100.00
66381;BME280;53177;52.648;1.214;2023-01-26T08:34:08;102498.97;;;4.81;100.00
66381;BME280;53177;52.648;1.214;2023-01-26T08:36:34;102499.91;;;4.83;100.00
66381;BME280;53177;52.648;1.214;2023-01-26T08:38:59;102502.53;;;4.83;100.00
66381;BME280;53177;52.648;1.214;2023-01-26T08:41:26;102516.47;;;4.82;100.00
66381;BME280;53177;52.648;1.214;2023-01-26T08:43:52;102513.03;;;4.83;100.00
66381;BME280;53177;52.648;1.214;2023-01-26T08:46:17;102516.66;;;4.88;100.00
66381;BME280;53177;52.648;1.214;2023-01-26T08:48:43;102525.53;;;4.93;100.00
66381;BME280;53177;52.648;1.214;2023-01-26T08:51:08;102525.69;;;4.98;100.00
66381;BME280;53177;52.648;1.214;2023-01-26T08:53:35;102531.00;;;5.01;100.00
66381;BME280;53177;52.648;1.214;2023-01-26T08:56:03;102548.66;;;5.06;100.00
66381;BME280;53177;52.648;1.214;2023-01-26T08:58:29;102544.41;;;5.10;100.00
66381;BME280;53177;52.648;1.214;2023-01-26T09:00:54;102541.06;;;5.15;100.00
66381;BME280;53177;52.648;1.214;2023-01-26T09:03:20;102527.13;;;5.18;100.00
66381;BME280;53177;52.648;1.214;2023-01-26T09:05:45;102534.16;;;5.19;100.00
66381;BME280;53177;52.648;1.214;2023-01-26T09:08:11;102531.69;;;5.23;100.00
66381;BME280;53177;52.648;1.214;2023-01-26T09:10:37;102535.19;;;5.24;100.00
66381;BME280;53177;52.648;1.214;2023-01-26T09:13:03;102542.19;;;5.25;100.00
66381;BME280;53177;52.648;1.214;2023-01-26T09:15:28;102541.34;;;5.26;100.00
66381;BME280;53177;52.648;1.214;2023-01-26T09:17:54;102546.69;;;5.29;100.00
66381;BME280;53177;52.648;1.214;2023-01-26T09:20:20;102547.72;;;5.34;100.00
66381;BME280;53177;52.648;1.214;2023-01-26T09:22:46;102553.88;;;5.36;100.00
66381;BME280;53177;52.648;1.214;2023-01-26T09:25:12;102552.22;;;5.39;100.00
66381;BME280;53177;52.648;1.214;2023-01-26T09:27:38;102541.84;;;5.44;99.82
66381;BME280;53177;52.648;1.214;2023-01-26T09:30:06;102547.19;;;5.47;100.00
66381;BME280;53177;52.648;1.214;2023-01-26T09:32:32;102545.53;;;5.51;99.59
66381;BME280;53177;52.648;1.214;2023-01-26T09:34:58;102550.84;;;5.52;99.31
66381;BME280;53177;52.648;1.214;2023-01-26T09:37:24;102546.53;;;5.54;99.30
66381;BME280;53177;52.648;1.214;2023-01-26T09:39:49;102547.53;;;5.59;99.88
66381;BME280;53177;52.648;1.214;2023-01-26T09:42:28;102551.00;;;5.58;99.56
66381;BME280;53177;52.648;1.214;2023-01-26T09:47:45;102565.06;;;5.60;99.65
66381;BME280;53177;52.648;1.214;2023-01-26T09:50:23;102563.31;;;5.61;99.90
66381;BME280;53177;52.648;1.214;2023-01-26T09:52:55;102563.41;;;5.64;99.32
66381;BME280;53177;52.648;1.214;2023-01-26T09:55:22;102563.53;;;5.68;99.06
66381;BME280;53177;52.648;1.214;2023-01-26T09:57:52;102565.28;;;5.69;98.98
66381;BME280;53177;52.648;1.214;2023-01-26T10:00:28;102575.00;;;5.72;99.00
66381;BME280;53177;52.648;1.214;2023-01-26T10:03:25;102578.41;;;5.69;99.38
66381;BME280;53177;52.648;1.214;2023-01-26T10:08:23;102589.03;;;5.72;98.19
66381;BME280;53177;52.648;1.214;2023-01-26T10:10:57;102590.88;;;5.76;98.34
66381;BME280;53177;52.648;1.214;2023-01-26T10:13:25;102596.22;;;5.81;98.57
66381;BME280;53177;52.648;1.214;2023-01-26T10:15:54;102594.47;;;5.80;98.38
66381;BME280;53177;52.648;1.214;2023-01-26T10:18:29;102590.13;;;5.82;97.99
66381;BME280;53177;52.648;1.214;2023-01-26T10:20:58;102591.13;;;5.85;98.43
66381;BME280;53177;52.648;1.214;2023-01-26T10:23:30;102604.41;;;5.90;97.38
66381;BME280;53177;52.648;1.214;2023-01-26T10:26:17;102596.53;;;5.90;97.51
66381;BME280;53177;52.648;1.214;2023-01-26T10:28:45;102608.88;;;5.94;97.49
66381;BME280;53177;52.648;1.214;2023-01-26T10:33:56;102613.47;;;6.03;97.26
66381;BME280;53177;52.648;1.214;2023-01-26T10:36:23;102607.38;;;6.04;96.57
66381;BME280;53177;52.648;1.214;2023-01-26T10:38:50;102612.84;;;6.11;96.40
66381;BME280;53177;52.648;1.214;2023-01-26T10:43:48;102622.53;;;6.14;95.76
66381;BME280;53177;52.648;1.214;2023-01-26T10:46:30;102611.22;;;6.16;96.05
66381;BME280;53177;52.648;1.214;2023-01-26T10:49:00;102619.94;;;6.15;96.29
66381;BME280;53177;52.648;1.214;2023-01-26T10:51:29;102611.16;;;6.15;95.62
66381;BME280;53177;52.648;1.214;2023-01-26T10:56:57;102621.75;;;6.18;96.36
66381;BME280;53177;52.648;1.214;2023-01-26T10:59:33;102627.19;;;6.24;95.20
66381;BME280;53177;52.648;1.214;2023-01-26T11:02:02;102621.94;;;6.24;95.42
66381;BME280;53177;52.648;1.214;2023-01-26T11:04:33;102630.72;;;6.24;95.44
66381;BME280;53177;52.648;1.214;2023-01-26T11:07:24;102617.59;;;6.26;95.18
66381;BME280;53177;52.648;1.214;2023-01-26T11:09:50;102620.22;;;6.26;95.74
66381;BME280;53177;52.648;1.214;2023-01-26T11:12:18;102625.53;;;6.27;95.74
66381;BME280;53177;52.648;1.214;2023-01-26T11:15:01;102621.16;;;6.28;94.91
66381;BME280;53177;52.648;1.214;2023-01-26T11:31:40;102601.19;;;6.34;94.23
66381;BME280;53177;52.648;1.214;2023-01-26T11:34:34;102602.41;;;6.49;94.52
66381;BME280;53177;52.648;1.214;2023-01-26T11:43:31;102608.63;;;6.52;93.33
66381;BME280;53177;52.648;1.214;2023-01-26T11:52:10;102596.44;;;6.56;92.07
66381;BME280;53177;52.648;1.214;2023-01-26T12:02:36;102607.31;;;6.71;92.42
66381;BME280;53177;52.648;1.214;2023-01-26T12:05:14;102602.00;;;6.69;91.71
66381;BME280;53177;52.648;1.214;2023-01-26T12:15:55;102601.16;;;6.70;91.10
66381;BME280;53177;52.648;1.214;2023-01-26T12:18:28;102599.47;;;6.72;91.47
66381;BME280;53177;52.648;1.214;2023-01-26T12:21:03;102605.53;;;6.70;91.87
66381;BME280;53177;52.648;1.214;2023-01-26T12:23:46;102608.94;;;6.66;92.41
66381;BME280;53177;52.648;1.214;2023-01-26T12:26:17;102602.69;;;6.61;92.54
66381;BME280;53177;52.648;1.214;2023-01-26T12:29:11;102598.16;;;6.55;92.70
66381;BME280;53177;52.648;1.214;2023-01-26T12:31:48;102609.53;;;6.54;92.84
66381;BME280;53177;52.648;1.214;2023-01-26T12:34:24;102609.53;;;6.54;93.48
66381;BME280;53177;52.648;1.214;2023-01-26T12:36:56;102604.31;;;6.56;92.80
66381;BME280;53177;52.648;1.214;2023-01-26T12:39:33;102607.97;;;6.61;92.73
66381;BME280;53177;52.648;1.214;2023-01-26T12:44:53;102597.53;;;6.65;93.10
66381;BME280;53177;52.648;1.214;2023-01-26T12:47:55;102602.78;;;6.65;92.48
66381;BME280;53177;52.648;1.214;2023-01-26T12:50:33;102596.66;;;6.65;92.11
66381;BME280;53177;52.648;1.214;2023-01-26T12:53:31;102606.34;;;6.67;92.13
66381;BME280;53177;52.648;1.214;2023-01-26T12:56:10;102599.38;;;6.69;92.02
66381;BME280;53177;52.648;1.214;2023-01-26T12:58:43;102598.53;;;6.70;91.46
66381;BME280;53177;52.648;1.214;2023-01-26T13:01:10;102600.19;;;6.67;91.40
66381;BME280;53177;52.648;1.214;2023-01-26T13:03:43;102592.19;;;6.61;90.98
66381;BME280;53177;52.648;1.214;2023-01-26T13:11:01;102587.94;;;6.67;91.16
66381;BME280;53177;52.648;1.214;2023-01-26T13:13:53;102589.75;;;6.70;91.22
66381;BME280;53177;52.648;1.214;2023-01-26T13:19:08;102590.66;;;6.70;91.11
66381;BME280;53177;52.648;1.214;2023-01-26T13:21:50;102597.53;;;6.65;91.88
66381;BME280;53177;52.648;1.214;2023-01-26T13:26:49;102587.81;;;6.61;91.79
66381;BME280;53177;52.648;1.214;2023-01-26T13:29:26;102587.78;;;6.60;91.63
66381;BME280;53177;52.648;1.214;2023-01-26T13:34:23;102586.94;;;6.62;91.41
66381;BME280;53177;52.648;1.214;2023-01-26T13:36:50;102579.09;;;6.64;91.55
66381;BME280;53177;52.648;1.214;2023-01-26T13:39:30;102580.78;;;6.62;92.02
66381;BME280;53177;52.648;1.214;2023-01-26T13:41:56;102589.63;;;6.65;92.23
66381;BME280;53177;52.648;1.214;2023-01-26T13:44:36;102586.09;;;6.63;91.53
66381;BME280;53177;52.648;1.214;2023-01-26T13:47:16;102578.16;;;6.62;91.28
66381;BME280;53177;52.648;1.214;2023-01-26T13:49:44;102583.53;;;6.65;91.22
66381;BME280;53177;52.648;1.214;2023-01-26T13:52:26;102583.59;;;6.68;91.63
66381;BME280;53177;52.648;1.214;2023-01-26T13:54:53;102591.50;;;6.69;91.55
66381;BME280;53177;52.648;1.214;2023-01-26T13:59:55;102583.69;;;6.72;90.94
66381;BME280;53177;52.648;1.214;2023-01-26T14:02:28;102591.53;;;6.71;91.40
66381;BME280;53177;52.648;1.214;2023-01-26T14:04:59;102579.22;;;6.68;91.82
66381;BME280;53177;52.648;1.214;2023-01-26T14:07:39;102587.97;;;6.69;91.66
66381;BME280;53177;52.648;1.214;2023-01-26T14:10:15;102598.47;;;6.67;91.92
66381;BME280;53177;52.648;1.214;2023-01-26T14:12:52;102589.69;;;6.67;91.88
66381;BME280;53177;52.648;1.214;2023-01-26T14:15:26;102593.16;;;6.66;91.95
66381;BME280;53177;52.648;1.214;2023-01-26T14:18:01;102601.03;;;6.66;92.24
66381;BME280;53177;52.648;1.214;2023-01-26T14:23:21;102596.91;;;6.77;91.12
66381;BME280;53177;52.648;1.214;2023-01-26T14:25:59;102593.34;;;6.73;91.66
66381;BME280;53177;52.648;1.214;2023-01-26T14:28:35;102596.75;;;6.69;91.73
66381;BME280;53177;52.648;1.214;2023-01-26T14:31:22;102601.94;;;6.66;91.79
66381;BME280;53177;52.648;1.214;2023-01-26T14:33:52;102604.38;;;6.59;91.61